sensor_id;sensor_type;location;lat;lon;timestamp;temperature;humidity
50013;DHT22;35901;48.694;9.476;2024-02-15T00:02:04;7.60;99.90
50013;DHT22;35901;48.694;9.476;2024-02-15T00:04:30;7.50;99.90
50013;DHT22;35901;48.694;9.476;2024-02-15T00:06:57;7.40;99.90
50013;DHT22;35901;48.694;9.476;2024-02-15T00:09:22;7.30;99.90
50013;DHT22;35901;48.694;9.476;2024-02-15T00:11:48;7.20;99.90
50013;DHT22;35901;48.694;9.476;2024-02-15T00:14:14;7.20;99.90
50013;DHT22;35901;48.694;9.476;2024-02-15T00:16:39;7.20;99.90
50013;DHT22;35901;48.694;9.476;2024-02-15T00:19:07;7.30;99.90
50013;DHT22;35901;48.694;9.476;2024-02-15T00:21:33;7.40;99.90
50013;DHT22;35901;48.694;9.476;2024-02-15T00:23:58;7.40;99.90
50013;DHT22;35901;48.694;9.476;2024-02-15T00:26:25;7.40;99.90
50013;DHT22;35901;48.694;9.476;2024-02-15T00:28:51;7.50;99.90
50013;DHT22;35901;48.694;9.476;2024-02-15T00:31:17;7.40;99.90
50013;DHT22;35901;48.694;9.476;2024-02-15T00:33:44;7.40;99.90
50013;DHT22;35901;48.694;9.476;2024-02-15T00:36:10;7.40;99.90
50013;DHT22;35901;48.694;9.476;2024-02-15T00:38:36;7.30;99.90
50013;DHT22;35901;48.694;9.476;2024-02-15T00:41:02;7.30;99.90
50013;DHT22;35901;48.694;9.476;2024-02-15T00:43:28;7.20;99.90
50013;DHT22;35901;48.694;9.476;2024-02-15T00:45:54;7.20;99.90
50013;DHT22;35901;48.694;9.476;2024-02-15T00:48:20;7.20;99.90
50013;DHT22;35901;48.694;9.476;2024-02-15T00:50:46;7.20;99.90
50013;DHT22;35901;48.694;9.476;2024-02-15T00:53:11;7.30;99.90
50013;DHT22;35901;48.694;9.476;2024-02-15T00:55:37;7.30;99.90
50013;DHT22;35901;48.694;9.476;2024-02-15T00:58:03;7.40;99.90
50013;DHT22;35901;48.694;9.476;2024-02-15T01:00:28;7.40;99.90
50013;DHT22;35901;48.694;9.476;2024-02-15T01:02:55;7.50;99.90
50013;DHT22;35901;48.694;9.476;2024-02-15T01:05:21;7.50;99.90
50013;DHT22;35901;48.694;9.476;2024-02-15T01:07:47;7.60;99.90
50013;DHT22;35901;48.694;9.476;2024-02-15T01:10:16;7.60;99.90
50013;DHT22;35901;48.694;9.476;2024-02-15T01:12:42;7.60;99.90
50013;DHT22;35901;48.694;9.476;2024-02-15T01:15:09;7.60;99.90
50013;DHT22;35901;48.694;9.476;2024-02-15T01:17:35;7.50;99.90
50013;DHT22;35901;48.694;9.476;2024-02-15T01:20:01;7.50;99.90
50013;DHT22;35901;48.694;9.476;2024-02-15T01:22:26;7.40;99.90
50013;DHT22;35901;48.694;9.476;2024-02-15T01:24:53;7.40;99.90
50013;DHT22;35901;48.694;9.476;2024-02-15T01:27:19;7.40;99.90
50013;DHT22;35901;48.694;9.476;2024-02-15T01:29:45;7.40;99.90
50013;DHT22;35901;48.694;9.476;2024-02-15T01:32:10;7.40;99.90
50013;DHT22;35901;48.694;9.476;2024-02-15T01:34:37;7.50;99.90
50013;DHT22;35901;48.694;9.476;2024-02-15T01:37:03;7.50;99.90
50013;DHT22;35901;48.694;9.476;2024-02-15T01:39:29;7.20;99.90
50013;DHT22;35901;48.694;9.476;2024-02-15T01:41:54;7.00;99.90
50013;DHT22;35901;48.694;9.476;2024-02-15T01:44:22;6.80;99.90
50013;DHT22;35901;48.694;9.476;2024-02-15T01:46:50;6.60;99.90
50013;DHT22;35901;48.694;9.476;2024-02-15T01:49:19;6.40;99.90
50013;DHT22;35901;48.694;9.476;2024-02-15T01:51:49;6.20;99.90
50013;DHT22;35901;48.694;9.476;2024-02-15T01:54:15;6.00;99.90
50013;DHT22;35901;48.694;9.476;2024-02-15T01:56:43;5.80;99.90
50013;DHT22;35901;48.694;9.476;2024-02-15T01:59:12;5.80;99.90
50013;DHT22;35901;48.694;9.476;2024-02-15T02:01:39;5.80;99.90
50013;DHT22;35901;48.694;9.476;2024-02-15T02:04:05;5.80;99.90
50013;DHT22;35901;48.694;9.476;2024-02-15T02:06:30;5.70;99.90
50013;DHT22;35901;48.694;9.476;2024-02-15T02:08:57;5.50;99.90
50013;DHT22;35901;48.694;9.476;2024-02-15T02:11:23;5.30;99.90
50013;DHT22;35901;48.694;9.476;2024-02-15T02:13:49;5.20;99.90
50013;DHT22;35901;48.694;9.476;2024-02-15T02:16:30;5.20;99.90
50013;DHT22;35901;48.694;9.476;2024-02-15T02:19:01;5.30;99.90
50013;DHT22;35901;48.694;9.476;2024-02-15T02:21:28;5.30;99.90
50013;DHT22;35901;48.694;9.476;2024-02-15T02:23:56;5.30;99.90
50013;DHT22;35901;48.694;9.476;2024-02-15T02:26:23;5.30;99.90
50013;DHT22;35901;48.694;9.476;2024-02-15T02:28:49;5.20;99.90
50013;DHT22;35901;48.694;9.476;2024-02-15T02:31:15;5.20;99.90
50013;DHT22;35901;48.694;9.476;2024-02-15T02:33:48;5.20;99.90
50013;DHT22;35901;48.694;9.476;2024-02-15T02:36:14;5.10;99.90
50013;DHT22;35901;48.694;9.476;2024-02-15T02:38:40;5.00;99.90
50013;DHT22;35901;48.694;9.476;2024-02-15T02:41:06;5.00;99.90
50013;DHT22;35901;48.694;9.476;2024-02-15T02:43:32;5.00;99.90
50013;DHT22;35901;48.694;9.476;2024-02-15T02:45:58;5.10;99.90
50013;DHT22;35901;48.694;9.476;2024-02-15T02:48:23;5.20;99.90
50013;DHT22;35901;48.694;9.476;2024-02-15T02:50:50;5.30;99.90
50013;DHT22;35901;48.694;9.476;2024-02-15T02:53:16;5.20;99.90
50013;DHT22;35901;48.694;9.476;2024-02-15T02:55:41;5.20;99.90
50013;DHT22;35901;48.694;9.476;2024-02-15T02:58:08;5.10;99.90
50013;DHT22;35901;48.694;9.476;2024-02-15T03:00:34;4.90;99.90
50013;DHT22;35901;48.694;9.476;2024-02-15T03:03:00;4.70;99.90
50013;DHT22;35901;48.694;9.476;2024-02-15T03:05:26;4.50;99.90
50013;DHT22;35901;48.694;9.476;2024-02-15T03:07:53;4.40;99.90
50013;DHT22;35901;48.694;9.476;2024-02-15T03:10:18;4.30;99.90
50013;DHT22;35901;48.694;9.476;2024-02-15T03:12:44;4.40;99.90
50013;DHT22;35901;48.694;9.476;2024-02-15T03:15:15;4.40;99.90
50013;DHT22;35901;48.694;9.476;2024-02-15T03:17:42;4.40;99.90
50013;DHT22;35901;48.694;9.476;2024-02-15T03:20:09;4.30;99.90
50013;DHT22;35901;48.694;9.476;2024-02-15T03:22:58;4.30;99.90
50013;DHT22;35901;48.694;9.476;2024-02-15T03:25:25;4.40;99.90
50013;DHT22;35901;48.694;9.476;2024-02-15T03:27:55;4.60;99.90
50013;DHT22;35901;48.694;9.476;2024-02-15T03:30:22;4.70;99.90
50013;DHT22;35901;48.694;9.476;2024-02-15T03:32:49;4.60;99.90
50013;DHT22;35901;48.694;9.476;2024-02-15T03:35:19;4.60;99.90
50013;DHT22;35901;48.694;9.476;2024-02-15T03:37:45;4.60;99.90
50013;DHT22;35901;48.694;9.476;2024-02-15T03:40:11;4.70;99.90
50013;DHT22;35901;48.694;9.476;2024-02-15T03:42:37;4.80;99.90
50013;DHT22;35901;48.694;9.476;2024-02-15T03:45:07;5.00;99.90
50013;DHT22;35901;48.694;9.476;2024-02-15T03:47:34;5.20;99.90
50013;DHT22;35901;48.694;9.476;2024-02-15T03:50:01;5.00;99.90
50013;DHT22;35901;48.694;9.476;2024-02-15T03:52:28;4.50;99.90
50013;DHT22;35901;48.694;9.476;2024-02-15T03:54:58;4.20;99.90
50013;DHT22;35901;48.694;9.476;2024-02-15T03:57:25;4.00;99.90
50013;DHT22;35901;48.694;9.476;2024-02-15T03:59:52;3.90;99.90
50013;DHT22;35901;48.694;9.476;2024-02-15T04:02:23;3.80;99.90
50013;DHT22;35901;48.694;9.476;2024-02-15T04:04:58;3.70;99.90
50013;DHT22;35901;48.694;9.476;2024-02-15T04:07:23;3.60;99.90
50013;DHT22;35901;48.694;9.476;2024-02-15T04:09:55;3.60;99.90
50013;DHT22;35901;48.694;9.476;2024-02-15T04:12:21;3.60;99.90
50013;DHT22;35901;48.694;9.476;2024-02-15T04:14:47;3.60;99.90
50013;DHT22;35901;48.694;9.476;2024-02-15T04:17:13;3.60;99.90
50013;DHT22;35901;48.694;9.476;2024-02-15T04:19:39;3.60;99.90
50013;DHT22;35901;48.694;9.476;2024-02-15T04:22:05;3.50;99.90
50013;DHT22;35901;48.694;9.476;2024-02-15T04:24:34;3.50;99.90
50013;DHT22;35901;48.694;9.476;2024-02-15T04:27:00;3.40;99.90
50013;DHT22;35901;48.694;9.476;2024-02-15T04:29:26;3.30;99.90
50013;DHT22;35901;48.694;9.476;2024-02-15T04:31:51;3.20;99.90
50013;DHT22;35901;48.694;9.476;2024-02-15T04:34:20;3.10;99.90
50013;DHT22;35901;48.694;9.476;2024-02-15T04:36:46;3.00;99.90
50013;DHT22;35901;48.694;9.476;2024-02-15T04:39:19;2.90;99.90
50013;DHT22;35901;48.694;9.476;2024-02-15T04:41:53;2.80;99.90
50013;DHT22;35901;48.694;9.476;2024-02-15T04:44:19;2.90;99.90
50013;DHT22;35901;48.694;9.476;2024-02-15T04:46:52;2.90;99.90
50013;DHT22;35901;48.694;9.476;2024-02-15T04:49:19;3.00;99.90
50013;DHT22;35901;48.694;9.476;2024-02-15T04:51:45;3.10;99.90
50013;DHT22;35901;48.694;9.476;2024-02-15T04:54:10;3.20;99.90
50013;DHT22;35901;48.694;9.476;2024-02-15T04:56:39;3.30;99.90
50013;DHT22;35901;48.694;9.476;2024-02-15T04:59:06;3.40;99.90
50013;DHT22;35901;48.694;9.476;2024-02-15T05:01:35;3.50;99.90
50013;DHT22;35901;48.694;9.476;2024-02-15T05:04:01;3.60;99.90
50013;DHT22;35901;48.694;9.476;2024-02-15T05:06:31;3.60;99.90
50013;DHT22;35901;48.694;9.476;2024-02-15T05:08:57;3.70;99.90
50013;DHT22;35901;48.694;9.476;2024-02-15T05:11:25;3.80;99.90
50013;DHT22;35901;48.694;9.476;2024-02-15T05:13:51;3.90;99.90
50013;DHT22;35901;48.694;9.476;2024-02-15T05:16:18;3.90;99.90
50013;DHT22;35901;48.694;9.476;2024-02-15T05:18:44;3.90;99.90
50013;DHT22;35901;48.694;9.476;2024-02-15T05:21:11;3.90;99.90
50013;DHT22;35901;48.694;9.476;2024-02-15T05:23:40;3.90;99.90
50013;DHT22;35901;48.694;9.476;2024-02-15T05:26:08;3.90;99.90
50013;DHT22;35901;48.694;9.476;2024-02-15T05:28:34;3.90;99.90
50013;DHT22;35901;48.694;9.476;2024-02-15T05:31:12;3.90;99.90
50013;DHT22;35901;48.694;9.476;2024-02-15T05:33:44;3.90;99.90
50013;DHT22;35901;48.694;9.476;2024-02-15T05:36:11;3.90;99.90
50013;DHT22;35901;48.694;9.476;2024-02-15T05:38:37;3.90;99.90
50013;DHT22;35901;48.694;9.476;2024-02-15T05:41:03;3.80;99.90
50013;DHT22;35901;48.694;9.476;2024-02-15T05:43:29;3.80;99.90
50013;DHT22;35901;48.694;9.476;2024-02-15T05:45:54;3.70;99.90
50013;DHT22;35901;48.694;9.476;2024-02-15T05:48:21;3.70;99.90
50013;DHT22;35901;48.694;9.476;2024-02-15T05:50:46;3.80;99.90
50013;DHT22;35901;48.694;9.476;2024-02-15T05:53:12;3.90;99.90
50013;DHT22;35901;48.694;9.476;2024-02-15T05:55:38;3.90;99.90
50013;DHT22;35901;48.694;9.476;2024-02-15T05:58:10;3.90;99.90
50013;DHT22;35901;48.694;9.476;2024-02-15T06:00:37;4.00;99.90
50013;DHT22;35901;48.694;9.476;2024-02-15T06:03:04;4.20;99.90
50013;DHT22;35901;48.694;9.476;2024-02-15T06:05:31;4.40;99.90
50013;DHT22;35901;48.694;9.476;2024-02-15T06:07:58;4.40;99.90
50013;DHT22;35901;48.694;9.476;2024-02-15T06:10:24;4.30;99.90
50013;DHT22;35901;48.694;9.476;2024-02-15T06:12:51;4.20;99.90
50013;DHT22;35901;48.694;9.476;2024-02-15T06:15:16;4.00;99.90
50013;DHT22;35901;48.694;9.476;2024-02-15T06:17:46;3.90;99.90
50013;DHT22;35901;48.694;9.476;2024-02-15T06:20:13;3.80;99.90
50013;DHT22;35901;48.694;9.476;2024-02-15T06:22:40;3.70;99.90
50013;DHT22;35901;48.694;9.476;2024-02-15T06:25:06;3.70;99.90
50013;DHT22;35901;48.694;9.476;2024-02-15T06:27:32;3.60;99.90
50013;DHT22;35901;48.694;9.476;2024-02-15T06:29:58;3.60;99.90
50013;DHT22;35901;48.694;9.476;2024-02-15T06:32:43;3.60;99.90
50013;DHT22;35901;48.694;9.476;2024-02-15T06:35:27;3.50;99.90
50013;DHT22;35901;48.694;9.476;2024-02-15T06:38:11;3.50;99.90
50013;DHT22;35901;48.694;9.476;2024-02-15T06:40:56;3.40;99.90
50013;DHT22;35901;48.694;9.476;2024-02-15T06:43:21;3.30;99.90
50013;DHT22;35901;48.694;9.476;2024-02-15T06:45:47;3.20;99.90
50013;DHT22;35901;48.694;9.476;2024-02-15T06:48:16;3.20;99.90
50013;DHT22;35901;48.694;9.476;2024-02-15T06:50:42;3.30;99.90
50013;DHT22;35901;48.694;9.476;2024-02-15T06:53:07;3.40;99.90
50013;DHT22;35901;48.694;9.476;2024-02-15T06:55:34;3.40;99.90
50013;DHT22;35901;48.694;9.476;2024-02-15T06:58:02;3.50;99.90
50013;DHT22;35901;48.694;9.476;2024-02-15T07:00:27;3.50;99.90
50013;DHT22;35901;48.694;9.476;2024-02-15T07:02:55;3.60;99.90
50013;DHT22;35901;48.694;9.476;2024-02-15T07:05:21;3.70;99.90
50013;DHT22;35901;48.694;9.476;2024-02-15T07:07:49;3.90;99.90
50013;DHT22;35901;48.694;9.476;2024-02-15T07:10:15;4.00;99.90
50013;DHT22;35901;48.694;9.476;2024-02-15T07:12:42;4.10;99.90
50013;DHT22;35901;48.694;9.476;2024-02-15T07:15:09;4.30;99.90
50013;DHT22;35901;48.694;9.476;2024-02-15T07:17:35;4.30;99.90
50013;DHT22;35901;48.694;9.476;2024-02-15T07:20:03;4.20;99.90
50013;DHT22;35901;48.694;9.476;2024-02-15T07:22:32;4.30;99.90
50013;DHT22;35901;48.694;9.476;2024-02-15T07:24:58;4.40;99.90
50013;DHT22;35901;48.694;9.476;2024-02-15T07:27:24;4.80;99.90
50013;DHT22;35901;48.694;9.476;2024-02-15T07:29:51;5.50;99.90
50013;DHT22;35901;48.694;9.476;2024-02-15T07:32:17;6.30;99.90
50013;DHT22;35901;48.694;9.476;2024-02-15T07:34:43;6.80;99.90
50013;DHT22;35901;48.694;9.476;2024-02-15T07:37:14;7.30;99.90
50013;DHT22;35901;48.694;9.476;2024-02-15T07:39:41;7.80;99.90
50013;DHT22;35901;48.694;9.476;2024-02-15T07:42:07;8.10;99.90
50013;DHT22;35901;48.694;9.476;2024-02-15T07:44:34;7.90;99.90
50013;DHT22;35901;48.694;9.476;2024-02-15T07:47:02;7.80;99.90
50013;DHT22;35901;48.694;9.476;2024-02-15T07:49:30;8.10;99.90
50013;DHT22;35901;48.694;9.476;2024-02-15T07:51:56;8.20;99.90
50013;DHT22;35901;48.694;9.476;2024-02-15T07:54:24;8.40;99.90
50013;DHT22;35901;48.694;9.476;2024-02-15T07:56:49;8.80;99.90
50013;DHT22;35901;48.694;9.476;2024-02-15T07:59:15;9.10;99.90
50013;DHT22;35901;48.694;9.476;2024-02-15T08:01:50;9.20;99.90
50013;DHT22;35901;48.694;9.476;2024-02-15T08:04:18;9.50;99.90
50013;DHT22;35901;48.694;9.476;2024-02-15T08:06:44;9.70;99.90
50013;DHT22;35901;48.694;9.476;2024-02-15T08:09:10;9.80;99.90
50013;DHT22;35901;48.694;9.476;2024-02-15T08:11:40;9.80;99.90
50013;DHT22;35901;48.694;9.476;2024-02-15T08:14:06;9.80;99.90
50013;DHT22;35901;48.694;9.476;2024-02-15T08:16:35;9.70;99.90
50013;DHT22;35901;48.694;9.476;2024-02-15T08:19:01;9.50;99.90
50013;DHT22;35901;48.694;9.476;2024-02-15T08:21:30;9.60;99.90
50013;DHT22;35901;48.694;9.476;2024-02-15T08:24:01;9.40;99.90
50013;DHT22;35901;48.694;9.476;2024-02-15T08:26:39;9.70;99.90
50013;DHT22;35901;48.694;9.476;2024-02-15T08:29:05;10.10;99.90
50013;DHT22;35901;48.694;9.476;2024-02-15T08:31:34;10.50;99.90
50013;DHT22;35901;48.694;9.476;2024-02-15T08:34:02;11.00;99.90
50013;DHT22;35901;48.694;9.476;2024-02-15T08:36:27;11.40;99.90
50013;DHT22;35901;48.694;9.476;2024-02-15T08:38:53;11.80;99.90
50013;DHT22;35901;48.694;9.476;2024-02-15T08:41:19;12.20;99.90
50013;DHT22;35901;48.694;9.476;2024-02-15T08:43:46;12.50;99.90
50013;DHT22;35901;48.694;9.476;2024-02-15T08:46:14;12.70;99.90
50013;DHT22;35901;48.694;9.476;2024-02-15T08:48:40;12.80;99.90
50013;DHT22;35901;48.694;9.476;2024-02-15T08:51:06;12.50;99.90
50013;DHT22;35901;48.694;9.476;2024-02-15T08:53:34;12.30;99.90
50013;DHT22;35901;48.694;9.476;2024-02-15T08:56:03;12.30;99.90
50013;DHT22;35901;48.694;9.476;2024-02-15T08:58:29;12.50;99.90
50013;DHT22;35901;48.694;9.476;2024-02-15T09:00:58;12.80;99.90
50013;DHT22;35901;48.694;9.476;2024-02-15T09:03:24;13.30;99.90
50013;DHT22;35901;48.694;9.476;2024-02-15T09:05:50;13.60;99.90
50013;DHT22;35901;48.694;9.476;2024-02-15T09:08:16;13.90;99.90
50013;DHT22;35901;48.694;9.476;2024-02-15T09:10:47;14.00;99.90
50013;DHT22;35901;48.694;9.476;2024-02-15T09:13:12;13.90;99.90
50013;DHT22;35901;48.694;9.476;2024-02-15T09:15:39;13.80;99.90
50013;DHT22;35901;48.694;9.476;2024-02-15T09:18:06;13.70;99.90
50013;DHT22;35901;48.694;9.476;2024-02-15T09:20:35;13.40;99.90
50013;DHT22;35901;48.694;9.476;2024-02-15T09:23:03;13.40;99.90
50013;DHT22;35901;48.694;9.476;2024-02-15T09:25:38;13.30;99.90
50013;DHT22;35901;48.694;9.476;2024-02-15T09:28:04;13.10;99.90
50013;DHT22;35901;48.694;9.476;2024-02-15T09:30:30;13.20;99.90
50013;DHT22;35901;48.694;9.476;2024-02-15T09:32:57;13.40;99.90
50013;DHT22;35901;48.694;9.476;2024-02-15T09:35:23;13.50;99.90
50013;DHT22;35901;48.694;9.476;2024-02-15T09:37:49;13.70;99.90
50013;DHT22;35901;48.694;9.476;2024-02-15T09:40:15;13.70;99.90
50013;DHT22;35901;48.694;9.476;2024-02-15T09:42:42;13.80;99.90
50013;DHT22;35901;48.694;9.476;2024-02-15T09:45:11;14.00;99.90
50013;DHT22;35901;48.694;9.476;2024-02-15T09:47:41;13.90;99.90
50013;DHT22;35901;48.694;9.476;2024-02-15T09:50:09;14.00;99.90
50013;DHT22;35901;48.694;9.476;2024-02-15T09:52:47;14.20;99.90
50013;DHT22;35901;48.694;9.476;2024-02-15T09:55:13;14.40;99.90
50013;DHT22;35901;48.694;9.476;2024-02-15T09:57:42;14.50;99.90
50013;DHT22;35901;48.694;9.476;2024-02-15T10:00:09;14.80;99.90
50013;DHT22;35901;48.694;9.476;2024-02-15T10:02:40;15.00;99.90
50013;DHT22;35901;48.694;9.476;2024-02-15T10:05:07;15.10;99.90
50013;DHT22;35901;48.694;9.476;2024-02-15T10:07:40;15.00;99.90
50013;DHT22;35901;48.694;9.476;2024-02-15T10:10:20;15.00;99.90
50013;DHT22;35901;48.694;9.476;2024-02-15T10:12:50;15.40;99.90
50013;DHT22;35901;48.694;9.476;2024-02-15T10:15:36;15.50;99.90
50013;DHT22;35901;48.694;9.476;2024-02-15T10:18:03;15.60;99.90
50013;DHT22;35901;48.694;9.476;2024-02-15T10:20:29;15.60;99.90
50013;DHT22;35901;48.694;9.476;2024-02-15T10:25:26;15.40;99.90
50013;DHT22;35901;48.694;9.476;2024-02-15T10:28:04;16.00;99.90
50013;DHT22;35901;48.694;9.476;2024-02-15T10:30:34;16.20;99.90
50013;DHT22;35901;48.694;9.476;2024-02-15T10:33:01;17.20;99.90
50013;DHT22;35901;48.694;9.476;2024-02-15T10:35:28;17.00;99.90
50013;DHT22;35901;48.694;9.476;2024-02-15T10:38:10;17.20;99.90
50013;DHT22;35901;48.694;9.476;2024-02-15T10:40:37;18.30;99.90
50013;DHT22;35901;48.694;9.476;2024-02-15T10:43:04;18.10;99.90
50013;DHT22;35901;48.694;9.476;2024-02-15T10:45:34;17.50;99.90
50013;DHT22;35901;48.694;9.476;2024-02-15T10:48:02;17.10;99.90
50013;DHT22;35901;48.694;9.476;2024-02-15T10:50:30;16.70;99.90
50013;DHT22;35901;48.694;9.476;2024-02-15T10:52:57;17.40;99.90
50013;DHT22;35901;48.694;9.476;2024-02-15T10:55:53;17.30;99.90
50013;DHT22;35901;48.694;9.476;2024-02-15T10:58:26;18.00;99.90
50013;DHT22;35901;48.694;9.476;2024-02-15T11:00:55;17.90;99.90
50013;DHT22;35901;48.694;9.476;2024-02-15T11:03:27;17.20;99.90
50013;DHT22;35901;48.694;9.476;2024-02-15T11:05:59;17.90;99.90
50013;DHT22;35901;48.694;9.476;2024-02-15T11:08:26;17.60;99.90
50013;DHT22;35901;48.694;9.476;2024-02-15T11:10:54;18.00;99.90
50013;DHT22;35901;48.694;9.476;2024-02-15T11:13:24;18.40;99.90
50013;DHT22;35901;48.694;9.476;2024-02-15T11:22:04;19.00;99.90
50013;DHT22;35901;48.694;9.476;2024-02-15T11:24:34;18.70;99.90
50013;DHT22;35901;48.694;9.476;2024-02-15T11:27:05;18.10;99.90
50013;DHT22;35901;48.694;9.476;2024-02-15T11:29:51;18.20;99.90
50013;DHT22;35901;48.694;9.476;2024-02-15T11:32:45;18.60;99.90
50013;DHT22;35901;48.694;9.476;2024-02-15T11:40:15;19.20;98.80
50013;DHT22;35901;48.694;9.476;2024-02-15T11:42:46;18.80;99.90
50013;DHT22;35901;48.694;9.476;2024-02-15T11:45:12;19.00;99.90
50013;DHT22;35901;48.694;9.476;2024-02-15T11:47:39;19.00;99.90
50013;DHT22;35901;48.694;9.476;2024-02-15T11:50:10;18.60;99.90
50013;DHT22;35901;48.694;9.476;2024-02-15T11:52:47;18.80;99.90
50013;DHT22;35901;48.694;9.476;2024-02-15T11:55:20;19.20;99.70
50013;DHT22;35901;48.694;9.476;2024-02-15T11:58:00;18.90;99.10
50013;DHT22;35901;48.694;9.476;2024-02-15T12:00:31;18.90;98.40
50013;DHT22;35901;48.694;9.476;2024-02-15T12:03:16;19.30;97.90
50013;DHT22;35901;48.694;9.476;2024-02-15T12:06:01;19.50;98.00
50013;DHT22;35901;48.694;9.476;2024-02-15T12:08:47;19.50;97.90
50013;DHT22;35901;48.694;9.476;2024-02-15T12:11:32;19.10;97.30
50013;DHT22;35901;48.694;9.476;2024-02-15T12:14:17;18.30;97.50
50013;DHT22;35901;48.694;9.476;2024-02-15T12:17:02;18.00;99.20
50013;DHT22;35901;48.694;9.476;2024-02-15T12:19:48;18.10;99.70
50013;DHT22;35901;48.694;9.476;2024-02-15T12:22:34;18.30;99.90
50013;DHT22;35901;48.694;9.476;2024-02-15T12:25:02;18.80;97.80
50013;DHT22;35901;48.694;9.476;2024-02-15T12:27:56;18.50;99.70
50013;DHT22;35901;48.694;9.476;2024-02-15T12:30:23;18.40;99.90
50013;DHT22;35901;48.694;9.476;2024-02-15T12:33:09;18.50;99.20
50013;DHT22;35901;48.694;9.476;2024-02-15T12:35:35;18.30;99.50
50013;DHT22;35901;48.694;9.476;2024-02-15T12:38:02;18.10;99.90
50013;DHT22;35901;48.694;9.476;2024-02-15T12:40:32;18.00;99.50
50013;DHT22;35901;48.694;9.476;2024-02-15T12:42:57;17.70;99.90
50013;DHT22;35901;48.694;9.476;2024-02-15T12:45:26;17.50;99.90
50013;DHT22;35901;48.694;9.476;2024-02-15T12:48:06;17.60;99.90
50013;DHT22;35901;48.694;9.476;2024-02-15T12:50:33;17.60;99.90
50013;DHT22;35901;48.694;9.476;2024-02-15T12:53:00;17.30;99.90
50013;DHT22;35901;48.694;9.476;2024-02-15T12:55:40;17.40;99.90
50013;DHT22;35901;48.694;9.476;2024-02-15T12:58:12;16.80;99.90
50013;DHT22;35901;48.694;9.476;2024-02-15T13:00:39;17.10;99.90
50013;DHT22;35901;48.694;9.476;2024-02-15T13:03:07;17.00;99.90
50013;DHT22;35901;48.694;9.476;2024-02-15T13:05:37;17.00;99.90
50013;DHT22;35901;48.694;9.476;2024-02-15T13:08:03;16.70;99.90
50013;DHT22;35901;48.694;9.476;2024-02-15T13:10:35;16.60;99.90
50013;DHT22;35901;48.694;9.476;2024-02-15T13:13:01;16.80;99.90
50013;DHT22;35901;48.694;9.476;2024-02-15T13:15:27;16.90;99.90
50013;DHT22;35901;48.694;9.476;2024-02-15T13:17:58;16.90;99.90
50013;DHT22;35901;48.694;9.476;2024-02-15T13:20:54;16.80;99.90
50013;DHT22;35901;48.694;9.476;2024-02-15T13:23:20;16.80;99.90
50013;DHT22;35901;48.694;9.476;2024-02-15T13:25:51;16.80;99.90
50013;DHT22;35901;48.694;9.476;2024-02-15T13:28:22;16.80;99.90
50013;DHT22;35901;48.694;9.476;2024-02-15T13:30:48;16.80;99.90
50013;DHT22;35901;48.694;9.476;2024-02-15T13:33:15;16.80;99.90
50013;DHT22;35901;48.694;9.476;2024-02-15T13:35:41;16.70;99.90
50013;DHT22;35901;48.694;9.476;2024-02-15T13:38:07;16.60;99.90
50013;DHT22;35901;48.694;9.476;2024-02-15T13:40:40;16.60;99.90
50013;DHT22;35901;48.694;9.476;2024-02-15T13:43:07;16.90;99.90
50013;DHT22;35901;48.694;9.476;2024-02-15T13:45:42;16.70;99.90
50013;DHT22;35901;48.694;9.476;2024-02-15T13:48:10;16.70;99.90
50013;DHT22;35901;48.694;9.476;2024-02-15T13:50:38;16.70;99.90
50013;DHT22;35901;48.694;9.476;2024-02-15T13:53:04;16.50;99.90
50013;DHT22;35901;48.694;9.476;2024-02-15T13:55:31;16.40;99.90
50013;DHT22;35901;48.694;9.476;2024-02-15T13:57:57;16.30;99.90
50013;DHT22;35901;48.694;9.476;2024-02-15T14:00:23;16.30;99.90
50013;DHT22;35901;48.694;9.476;2024-02-15T14:02:56;16.40;99.90
50013;DHT22;35901;48.694;9.476;2024-02-15T14:05:24;16.50;99.90
50013;DHT22;35901;48.694;9.476;2024-02-15T14:07:52;16.40;99.90
50013;DHT22;35901;48.694;9.476;2024-02-15T14:10:21;16.30;99.90
50013;DHT22;35901;48.694;9.476;2024-02-15T14:12:47;16.40;99.90
50013;DHT22;35901;48.694;9.476;2024-02-15T14:15:15;16.20;99.90
50013;DHT22;35901;48.694;9.476;2024-02-15T14:17:42;16.20;99.90
50013;DHT22;35901;48.694;9.476;2024-02-15T14:20:10;16.20;99.90
50013;DHT22;35901;48.694;9.476;2024-02-15T14:26:31;16.40;99.90
50013;DHT22;35901;48.694;9.476;2024-02-15T14:28:56;16.30;99.90
50013;DHT22;35901;48.694;9.476;2024-02-15T14:31:22;16.20;99.90
50013;DHT22;35901;48.694;9.476;2024-02-15T14:34:06;16.30;99.90
50013;DHT22;35901;48.694;9.476;2024-02-15T14:36:32;16.30;99.90
50013;DHT22;35901;48.694;9.476;2024-02-15T14:38:58;16.20;99.90
50013;DHT22;35901;48.694;9.476;2024-02-15T14:41:23;16.20;99.90
50013;DHT22;35901;48.694;9.476;2024-02-15T14:43:49;16.10;99.90
50013;DHT22;35901;48.694;9.476;2024-02-15T14:46:16;16.10;99.90
50013;DHT22;35901;48.694;9.476;2024-02-15T14:48:41;16.20;99.90
50013;DHT22;35901;48.694;9.476;2024-02-15T14:51:09;16.00;99.90
50013;DHT22;35901;48.694;9.476;2024-02-15T14:53:35;16.00;99.90
50013;DHT22;35901;48.694;9.476;2024-02-15T14:56:01;16.00;99.90
50013;DHT22;35901;48.694;9.476;2024-02-15T14:58:30;15.90;99.90
50013;DHT22;35901;48.694;9.476;2024-02-15T15:00:55;15.80;99.90
50013;DHT22;35901;48.694;9.476;2024-02-15T15:03:22;15.90;99.90
50013;DHT22;35901;48.694;9.476;2024-02-15T15:05:50;15.80;99.90
50013;DHT22;35901;48.694;9.476;2024-02-15T15:08:45;15.90;99.90
50013;DHT22;35901;48.694;9.476;2024-02-15T15:11:30;15.70;99.90
50013;DHT22;35901;48.694;9.476;2024-02-15T15:14:14;15.80;99.90
50013;DHT22;35901;48.694;9.476;2024-02-15T15:16:40;15.70;99.90
50013;DHT22;35901;48.694;9.476;2024-02-15T15:19:05;15.80;99.90
50013;DHT22;35901;48.694;9.476;2024-02-15T15:21:31;15.80;99.90
50013;DHT22;35901;48.694;9.476;2024-02-15T15:23:57;15.80;99.90
50013;DHT22;35901;48.694;9.476;2024-02-15T15:26:23;15.80;99.90
50013;DHT22;35901;48.694;9.476;2024-02-15T15:28:49;15.90;99.90
50013;DHT22;35901;48.694;9.476;2024-02-15T15:31:15;15.80;99.90
50013;DHT22;35901;48.694;9.476;2024-02-15T15:33:42;15.70;99.90
50013;DHT22;35901;48.694;9.476;2024-02-15T15:36:07;15.60;99.90
50013;DHT22;35901;48.694;9.476;2024-02-15T15:38:33;15.60;99.90
50013;DHT22;35901;48.694;9.476;2024-02-15T15:40:59;15.50;99.90
50013;DHT22;35901;48.694;9.476;2024-02-15T15:43:26;15.40;99.90
50013;DHT22;35901;48.694;9.476;2024-02-15T15:45:51;15.40;99.90
50013;DHT22;35901;48.694;9.476;2024-02-15T15:48:17;15.30;99.90
50013;DHT22;35901;48.694;9.476;2024-02-15T15:50:44;15.30;99.90
50013;DHT22;35901;48.694;9.476;2024-02-15T15:53:10;15.20;99.90
50013;DHT22;35901;48.694;9.476;2024-02-15T15:55:39;15.10;99.90
50013;DHT22;35901;48.694;9.476;2024-02-15T15:58:04;14.90;99.90
50013;DHT22;35901;48.694;9.476;2024-02-15T16:00:34;14.80;99.90
50013;DHT22;35901;48.694;9.476;2024-02-15T16:03:01;14.70;99.90
50013;DHT22;35901;48.694;9.476;2024-02-15T16:05:30;14.60;99.90
50013;DHT22;35901;48.694;9.476;2024-02-15T16:07:56;14.40;99.90